Ottosen, Iowa
Current Conditions -  °F | °C
As of 3:15 AM on Thursday 23 Oct 2014 (Local Time) from KAXA Reporting Station
Overcast Overcast  
Wind Chill: 54°   Ceiling: 2800
Heat Index: 54°   Visibility: 7mi
Dew Point: 52°   Wind: 12mph
Humidity: 94%   Direction: 170°S
Pressure: 30.02"   Gusts: NA
Location:  42.89°N, 94.38°W
Report Text: KAXA 230815Z AUTO 17010KT 7SM OVC028 12/11 A3002 RMK AO2
Loading
Personal Weather Stations






























Interactive Weather Map
Tropical Storm Tracking
New forecast layout! Learn more

10-Day Weather Forecast

Advertisements
Track Severe Weather on mobile